sensor_id;sensor_type;location;lat;lon;timestamp;temperature;humidity
53962;DHT22;39868;53.398;6.564;2023-04-06T00:01:20;5.50;60.00
53962;DHT22;39868;53.398;6.564;2023-04-06T00:03:47;5.50;59.80
53962;DHT22;39868;53.398;6.564;2023-04-06T00:06:15;5.50;59.80
53962;DHT22;39868;53.398;6.564;2023-04-06T00:08:43;5.50;59.80
53962;DHT22;39868;53.398;6.564;2023-04-06T00:11:11;5.40;59.70
53962;DHT22;39868;53.398;6.564;2023-04-06T00:13:38;5.40;59.70
53962;DHT22;39868;53.398;6.564;2023-04-06T00:16:06;5.40;59.70
53962;DHT22;39868;53.398;6.564;2023-04-06T00:18:34;5.40;59.70
53962;DHT22;39868;53.398;6.564;2023-04-06T00:21:01;5.40;59.90
53962;DHT22;39868;53.398;6.564;2023-04-06T00:23:28;5.40;59.90
53962;DHT22;39868;53.398;6.564;2023-04-06T00:25:55;5.30;59.90
53962;DHT22;39868;53.398;6.564;2023-04-06T00:28:23;5.30;59.90
53962;DHT22;39868;53.398;6.564;2023-04-06T00:30:53;5.30;59.90
53962;DHT22;39868;53.398;6.564;2023-04-06T00:33:22;5.30;59.80
53962;DHT22;39868;53.398;6.564;2023-04-06T00:35:50;5.30;59.90
53962;DHT22;39868;53.398;6.564;2023-04-06T00:38:18;5.20;59.90
53962;DHT22;39868;53.398;6.564;2023-04-06T00:40:45;5.20;59.90
53962;DHT22;39868;53.398;6.564;2023-04-06T00:43:13;5.20;59.80
53962;DHT22;39868;53.398;6.564;2023-04-06T00:45:42;5.20;59.80
53962;DHT22;39868;53.398;6.564;2023-04-06T00:48:10;5.10;59.80
53962;DHT22;39868;53.398;6.564;2023-04-06T00:50:37;5.10;59.80
53962;DHT22;39868;53.398;6.564;2023-04-06T00:53:05;5.10;59.90
53962;DHT22;39868;53.398;6.564;2023-04-06T00:55:32;5.10;59.90
53962;DHT22;39868;53.398;6.564;2023-04-06T00:58:01;5.00;60.00
53962;DHT22;39868;53.398;6.564;2023-04-06T01:00:33;5.00;60.20
53962;DHT22;39868;53.398;6.564;2023-04-06T01:03:02;4.90;60.00
53962;DHT22;39868;53.398;6.564;2023-04-06T01:05:37;4.90;60.00
53962;DHT22;39868;53.398;6.564;2023-04-06T01:08:16;4.90;60.10
53962;DHT22;39868;53.398;6.564;2023-04-06T01:10:44;4.80;60.10
53962;DHT22;39868;53.398;6.564;2023-04-06T01:13:22;4.80;60.20
53962;DHT22;39868;53.398;6.564;2023-04-06T01:15:55;4.80;60.30
53962;DHT22;39868;53.398;6.564;2023-04-06T01:18:30;4.70;60.30
53962;DHT22;39868;53.398;6.564;2023-04-06T01:21:12;4.70;60.40
53962;DHT22;39868;53.398;6.564;2023-04-06T01:23:59;4.70;60.50
53962;DHT22;39868;53.398;6.564;2023-04-06T01:26:35;4.60;60.60
53962;DHT22;39868;53.398;6.564;2023-04-06T01:29:08;4.60;60.80
53962;DHT22;39868;53.398;6.564;2023-04-06T01:31:35;4.60;60.80
53962;DHT22;39868;53.398;6.564;2023-04-06T01:34:04;4.50;60.60
53962;DHT22;39868;53.398;6.564;2023-04-06T01:36:32;4.50;60.70
53962;DHT22;39868;53.398;6.564;2023-04-06T01:39:21;4.50;60.90
53962;DHT22;39868;53.398;6.564;2023-04-06T01:41:48;4.40;60.90
53962;DHT22;39868;53.398;6.564;2023-04-06T01:44:18;4.40;61.10
53962;DHT22;39868;53.398;6.564;2023-04-06T01:46:51;4.40;61.30
53962;DHT22;39868;53.398;6.564;2023-04-06T01:49:19;4.40;61.50
53962;DHT22;39868;53.398;6.564;2023-04-06T01:51:51;4.30;61.40
53962;DHT22;39868;53.398;6.564;2023-04-06T01:54:21;4.30;61.60
53962;DHT22;39868;53.398;6.564;2023-04-06T01:57:00;4.30;61.70
53962;DHT22;39868;53.398;6.564;2023-04-06T01:59:34;4.30;62.00
53962;DHT22;39868;53.398;6.564;2023-04-06T02:02:07;4.20;61.90
53962;DHT22;39868;53.398;6.564;2023-04-06T02:04:37;4.20;62.00
53962;DHT22;39868;53.398;6.564;2023-04-06T02:07:09;4.20;62.20
53962;DHT22;39868;53.398;6.564;2023-04-06T02:09:37;4.20;62.30
53962;DHT22;39868;53.398;6.564;2023-04-06T02:12:08;4.20;62.30
53962;DHT22;39868;53.398;6.564;2023-04-06T02:14:35;4.10;62.30
53962;DHT22;39868;53.398;6.564;2023-04-06T02:17:03;4.10;62.30
53962;DHT22;39868;53.398;6.564;2023-04-06T02:19:31;4.10;62.30
53962;DHT22;39868;53.398;6.564;2023-04-06T02:21:58;4.10;62.40
53962;DHT22;39868;53.398;6.564;2023-04-06T02:24:25;4.10;62.30
53962;DHT22;39868;53.398;6.564;2023-04-06T02:26:53;4.00;62.30
53962;DHT22;39868;53.398;6.564;2023-04-06T02:29:20;4.00;62.40
53962;DHT22;39868;53.398;6.564;2023-04-06T02:31:48;4.00;62.40
53962;DHT22;39868;53.398;6.564;2023-04-06T02:34:16;4.00;62.40
53962;DHT22;39868;53.398;6.564;2023-04-06T02:36:49;4.00;62.30
53962;DHT22;39868;53.398;6.564;2023-04-06T02:39:17;4.00;62.20
53962;DHT22;39868;53.398;6.564;2023-04-06T02:41:44;3.90;62.10
53962;DHT22;39868;53.398;6.564;2023-04-06T02:44:16;3.90;62.20
53962;DHT22;39868;53.398;6.564;2023-04-06T02:46:44;3.90;62.10
53962;DHT22;39868;53.398;6.564;2023-04-06T02:49:13;3.90;62.00
53962;DHT22;39868;53.398;6.564;2023-04-06T02:51:40;3.90;62.10
53962;DHT22;39868;53.398;6.564;2023-04-06T02:54:34;3.90;62.00
53962;DHT22;39868;53.398;6.564;2023-04-06T02:57:03;3.90;61.90
53962;DHT22;39868;53.398;6.564;2023-04-06T02:59:37;3.80;62.30
53962;DHT22;39868;53.398;6.564;2023-04-06T03:02:12;3.80;62.30
53962;DHT22;39868;53.398;6.564;2023-04-06T03:04:39;3.80;62.50
53962;DHT22;39868;53.398;6.564;2023-04-06T03:07:16;3.80;62.60
53962;DHT22;39868;53.398;6.564;2023-04-06T03:09:44;3.80;62.50
53962;DHT22;39868;53.398;6.564;2023-04-06T03:12:11;3.70;62.40
53962;DHT22;39868;53.398;6.564;2023-04-06T03:15:04;3.70;62.60
53962;DHT22;39868;53.398;6.564;2023-04-06T03:17:32;3.70;62.00
53962;DHT22;39868;53.398;6.564;2023-04-06T03:20:04;3.70;62.60
53962;DHT22;39868;53.398;6.564;2023-04-06T03:22:32;3.60;62.60
53962;DHT22;39868;53.398;6.564;2023-04-06T03:25:00;3.60;62.70
53962;DHT22;39868;53.398;6.564;2023-04-06T03:27:31;3.60;62.90
53962;DHT22;39868;53.398;6.564;2023-04-06T03:30:00;3.50;62.90
53962;DHT22;39868;53.398;6.564;2023-04-06T03:32:33;3.50;62.90
53962;DHT22;39868;53.398;6.564;2023-04-06T03:35:01;3.50;62.90
53962;DHT22;39868;53.398;6.564;2023-04-06T03:37:30;3.50;62.80
53962;DHT22;39868;53.398;6.564;2023-04-06T03:40:02;3.50;62.90
53962;DHT22;39868;53.398;6.564;2023-04-06T03:42:29;3.40;62.90
53962;DHT22;39868;53.398;6.564;2023-04-06T03:45:03;3.40;63.10
53962;DHT22;39868;53.398;6.564;2023-04-06T03:47:31;3.40;63.10
53962;DHT22;39868;53.398;6.564;2023-04-06T03:50:03;3.40;63.20
53962;DHT22;39868;53.398;6.564;2023-04-06T03:52:34;3.40;63.20
53962;DHT22;39868;53.398;6.564;2023-04-06T03:55:02;3.40;63.30
53962;DHT22;39868;53.398;6.564;2023-04-06T03:57:29;3.40;63.60
53962;DHT22;39868;53.398;6.564;2023-04-06T03:59:57;3.40;63.80
53962;DHT22;39868;53.398;6.564;2023-04-06T04:02:25;3.30;63.80
53962;DHT22;39868;53.398;6.564;2023-04-06T04:04:53;3.30;63.90
53962;DHT22;39868;53.398;6.564;2023-04-06T04:07:20;3.30;64.00
53962;DHT22;39868;53.398;6.564;2023-04-06T04:09:47;3.30;64.00
53962;DHT22;39868;53.398;6.564;2023-04-06T04:12:15;3.30;64.00
53962;DHT22;39868;53.398;6.564;2023-04-06T04:14:43;3.30;64.10
53962;DHT22;39868;53.398;6.564;2023-04-06T04:17:11;3.20;64.20
53962;DHT22;39868;53.398;6.564;2023-04-06T04:19:38;3.20;64.30
53962;DHT22;39868;53.398;6.564;2023-04-06T04:22:05;3.20;64.40
53962;DHT22;39868;53.398;6.564;2023-04-06T04:24:37;3.20;64.70
53962;DHT22;39868;53.398;6.564;2023-04-06T04:27:06;3.20;64.70
53962;DHT22;39868;53.398;6.564;2023-04-06T04:29:39;3.10;64.70
53962;DHT22;39868;53.398;6.564;2023-04-06T04:32:09;3.10;64.50
53962;DHT22;39868;53.398;6.564;2023-04-06T04:34:36;3.10;64.50
53962;DHT22;39868;53.398;6.564;2023-04-06T04:37:11;3.10;64.80
53962;DHT22;39868;53.398;6.564;2023-04-06T04:39:48;3.10;64.70
53962;DHT22;39868;53.398;6.564;2023-04-06T04:42:15;3.10;64.60
53962;DHT22;39868;53.398;6.564;2023-04-06T04:44:49;3.10;64.70
53962;DHT22;39868;53.398;6.564;2023-04-06T04:47:28;3.10;64.70
53962;DHT22;39868;53.398;6.564;2023-04-06T04:49:56;3.10;64.90
53962;DHT22;39868;53.398;6.564;2023-04-06T04:52:24;3.00;64.90
53962;DHT22;39868;53.398;6.564;2023-04-06T04:55:16;3.10;65.00
53962;DHT22;39868;53.398;6.564;2023-04-06T04:57:50;3.00;65.00
53962;DHT22;39868;53.398;6.564;2023-04-06T05:00:22;3.00;65.20
53962;DHT22;39868;53.398;6.564;2023-04-06T05:02:54;3.00;65.20
53962;DHT22;39868;53.398;6.564;2023-04-06T05:05:34;3.00;65.20
53962;DHT22;39868;53.398;6.564;2023-04-06T05:08:04;3.00;65.40
53962;DHT22;39868;53.398;6.564;2023-04-06T05:10:40;3.00;65.50
53962;DHT22;39868;53.398;6.564;2023-04-06T05:13:08;3.00;65.70
53962;DHT22;39868;53.398;6.564;2023-04-06T05:15:35;3.00;65.70
53962;DHT22;39868;53.398;6.564;2023-04-06T05:18:22;3.00;65.80
53962;DHT22;39868;53.398;6.564;2023-04-06T05:20:49;3.10;65.80
53962;DHT22;39868;53.398;6.564;2023-04-06T05:23:23;3.10;65.80
53962;DHT22;39868;53.398;6.564;2023-04-06T05:25:52;3.10;65.80
53962;DHT22;39868;53.398;6.564;2023-04-06T05:28:22;3.10;65.90
53962;DHT22;39868;53.398;6.564;2023-04-06T05:30:49;3.10;65.90
53962;DHT22;39868;53.398;6.564;2023-04-06T05:33:17;3.10;65.70
53962;DHT22;39868;53.398;6.564;2023-04-06T05:36:08;3.20;65.60
53962;DHT22;39868;53.398;6.564;2023-04-06T05:38:40;3.20;65.50
53962;DHT22;39868;53.398;6.564;2023-04-06T05:41:17;3.20;65.40
53962;DHT22;39868;53.398;6.564;2023-04-06T05:43:44;3.30;65.60
53962;DHT22;39868;53.398;6.564;2023-04-06T05:46:12;3.30;65.80
53962;DHT22;39868;53.398;6.564;2023-04-06T05:48:40;3.30;65.80
53962;DHT22;39868;53.398;6.564;2023-04-06T05:51:09;3.40;66.00
53962;DHT22;39868;53.398;6.564;2023-04-06T05:53:43;3.40;65.90
53962;DHT22;39868;53.398;6.564;2023-04-06T05:56:11;3.50;66.10
53962;DHT22;39868;53.398;6.564;2023-04-06T05:58:41;3.60;66.20
53962;DHT22;39868;53.398;6.564;2023-04-06T06:01:12;3.60;66.30
53962;DHT22;39868;53.398;6.564;2023-04-06T06:03:44;3.70;66.10
53962;DHT22;39868;53.398;6.564;2023-04-06T06:06:12;3.70;66.20
53962;DHT22;39868;53.398;6.564;2023-04-06T06:09:03;3.80;66.20
53962;DHT22;39868;53.398;6.564;2023-04-06T06:11:34;3.90;66.20
53962;DHT22;39868;53.398;6.564;2023-04-06T06:14:03;3.90;66.10
53962;DHT22;39868;53.398;6.564;2023-04-06T06:16:33;4.00;66.20
53962;DHT22;39868;53.398;6.564;2023-04-06T06:19:01;4.10;66.20
53962;DHT22;39868;53.398;6.564;2023-04-06T06:21:30;4.20;66.30
53962;DHT22;39868;53.398;6.564;2023-04-06T06:23:58;4.30;66.20
53962;DHT22;39868;53.398;6.564;2023-04-06T06:26:26;4.30;66.20
53962;DHT22;39868;53.398;6.564;2023-04-06T06:28:55;4.40;66.20
53962;DHT22;39868;53.398;6.564;2023-04-06T06:31:23;4.50;66.30
53962;DHT22;39868;53.398;6.564;2023-04-06T06:33:51;4.60;66.30
53962;DHT22;39868;53.398;6.564;2023-04-06T06:36:20;4.60;66.20
53962;DHT22;39868;53.398;6.564;2023-04-06T06:38:47;4.70;66.20
53962;DHT22;39868;53.398;6.564;2023-04-06T06:41:18;4.80;66.20
53962;DHT22;39868;53.398;6.564;2023-04-06T06:43:45;4.90;66.10
53962;DHT22;39868;53.398;6.564;2023-04-06T06:46:12;5.00;66.10
53962;DHT22;39868;53.398;6.564;2023-04-06T06:48:40;5.10;66.10
53962;DHT22;39868;53.398;6.564;2023-04-06T06:51:08;5.20;66.30
53962;DHT22;39868;53.398;6.564;2023-04-06T06:53:39;5.30;66.20
53962;DHT22;39868;53.398;6.564;2023-04-06T06:56:06;5.40;66.30
53962;DHT22;39868;53.398;6.564;2023-04-06T06:58:34;5.50;66.30
53962;DHT22;39868;53.398;6.564;2023-04-06T07:01:02;5.60;66.30
53962;DHT22;39868;53.398;6.564;2023-04-06T07:03:30;5.70;66.20
53962;DHT22;39868;53.398;6.564;2023-04-06T07:05:58;5.80;66.20
53962;DHT22;39868;53.398;6.564;2023-04-06T07:08:26;5.90;66.30
53962;DHT22;39868;53.398;6.564;2023-04-06T07:10:54;6.00;66.30
53962;DHT22;39868;53.398;6.564;2023-04-06T07:13:23;6.10;66.30
53962;DHT22;39868;53.398;6.564;2023-04-06T07:15:54;6.30;66.30
53962;DHT22;39868;53.398;6.564;2023-04-06T07:18:22;6.50;66.40
53962;DHT22;39868;53.398;6.564;2023-04-06T07:20:50;6.70;66.30
53962;DHT22;39868;53.398;6.564;2023-04-06T07:23:17;6.90;66.20
53962;DHT22;39868;53.398;6.564;2023-04-06T07:25:45;7.20;65.90
53962;DHT22;39868;53.398;6.564;2023-04-06T07:28:13;7.40;65.70
53962;DHT22;39868;53.398;6.564;2023-04-06T07:30:41;7.70;65.50
53962;DHT22;39868;53.398;6.564;2023-04-06T07:33:10;7.90;65.40
53962;DHT22;39868;53.398;6.564;2023-04-06T07:35:38;8.20;65.30
53962;DHT22;39868;53.398;6.564;2023-04-06T07:38:07;8.40;66.10
53962;DHT22;39868;53.398;6.564;2023-04-06T07:40:35;8.50;65.50
53962;DHT22;39868;53.398;6.564;2023-04-06T07:43:03;8.60;65.40
53962;DHT22;39868;53.398;6.564;2023-04-06T07:45:30;8.80;65.30
53962;DHT22;39868;53.398;6.564;2023-04-06T07:48:00;8.80;65.10
53962;DHT22;39868;53.398;6.564;2023-04-06T07:50:27;9.00;64.90
53962;DHT22;39868;53.398;6.564;2023-04-06T07:52:56;9.10;64.70
53962;DHT22;39868;53.398;6.564;2023-04-06T07:55:24;9.20;64.60
53962;DHT22;39868;53.398;6.564;2023-04-06T07:57:52;9.30;64.40
53962;DHT22;39868;53.398;6.564;2023-04-06T08:00:19;9.40;64.20
53962;DHT22;39868;53.398;6.564;2023-04-06T08:02:47;9.50;63.90
53962;DHT22;39868;53.398;6.564;2023-04-06T08:05:15;9.80;63.60
53962;DHT22;39868;53.398;6.564;2023-04-06T08:07:42;10.10;63.30
53962;DHT22;39868;53.398;6.564;2023-04-06T08:10:10;10.40;63.20
53962;DHT22;39868;53.398;6.564;2023-04-06T08:12:37;10.60;62.90
53962;DHT22;39868;53.398;6.564;2023-04-06T08:15:05;10.80;63.00
53962;DHT22;39868;53.398;6.564;2023-04-06T08:17:32;10.90;63.00
53962;DHT22;39868;53.398;6.564;2023-04-06T08:20:01;11.10;62.80
53962;DHT22;39868;53.398;6.564;2023-04-06T08:22:30;11.40;62.40
53962;DHT22;39868;53.398;6.564;2023-04-06T08:25:01;11.60;62.20
53962;DHT22;39868;53.398;6.564;2023-04-06T08:27:28;11.90;62.20
53962;DHT22;39868;53.398;6.564;2023-04-06T08:29:56;12.00;62.10
53962;DHT22;39868;53.398;6.564;2023-04-06T08:32:23;12.20;62.10
53962;DHT22;39868;53.398;6.564;2023-04-06T08:34:55;12.50;61.80
53962;DHT22;39868;53.398;6.564;2023-04-06T08:37:23;12.80;61.20
53962;DHT22;39868;53.398;6.564;2023-04-06T08:39:50;13.20;61.00
53962;DHT22;39868;53.398;6.564;2023-04-06T08:42:22;13.40;60.50
53962;DHT22;39868;53.398;6.564;2023-04-06T08:44:52;13.70;59.40
53962;DHT22;39868;53.398;6.564;2023-04-06T08:47:20;14.10;58.90
53962;DHT22;39868;53.398;6.564;2023-04-06T08:49:51;14.30;59.20
53962;DHT22;39868;53.398;6.564;2023-04-06T08:52:19;14.30;59.00
53962;DHT22;39868;53.398;6.564;2023-04-06T08:54:47;14.50;58.30
53962;DHT22;39868;53.398;6.564;2023-04-06T08:57:15;14.80;58.20
53962;DHT22;39868;53.398;6.564;2023-04-06T08:59:44;15.00;57.80
53962;DHT22;39868;53.398;6.564;2023-04-06T09:02:17;15.10;57.90
53962;DHT22;39868;53.398;6.564;2023-04-06T09:04:53;15.30;58.20
53962;DHT22;39868;53.398;6.564;2023-04-06T09:07:21;15.40;57.50
53962;DHT22;39868;53.398;6.564;2023-04-06T09:09:49;15.50;57.10
53962;DHT22;39868;53.398;6.564;2023-04-06T09:12:30;15.70;56.80
53962;DHT22;39868;53.398;6.564;2023-04-06T09:14:59;15.80;57.10
53962;DHT22;39868;53.398;6.564;2023-04-06T09:17:31;15.90;57.30
53962;DHT22;39868;53.398;6.564;2023-04-06T09:20:01;15.90;55.80
53962;DHT22;39868;53.398;6.564;2023-04-06T09:22:39;16.00;55.80
53962;DHT22;39868;53.398;6.564;2023-04-06T09:25:08;16.10;55.50
53962;DHT22;39868;53.398;6.564;2023-04-06T09:27:37;16.10;55.20
53962;DHT22;39868;53.398;6.564;2023-04-06T09:32:44;16.20;53.70
53962;DHT22;39868;53.398;6.564;2023-04-06T09:35:13;16.30;53.40
53962;DHT22;39868;53.398;6.564;2023-04-06T09:37:44;16.40;53.60
53962;DHT22;39868;53.398;6.564;2023-04-06T09:40:13;16.40;53.70
53962;DHT22;39868;53.398;6.564;2023-04-06T09:42:41;16.40;52.40
53962;DHT22;39868;53.398;6.564;2023-04-06T09:45:09;16.40;52.20
53962;DHT22;39868;53.398;6.564;2023-04-06T09:47:37;16.40;52.30
53962;DHT22;39868;53.398;6.564;2023-04-06T09:50:09;16.40;51.50
53962;DHT22;39868;53.398;6.564;2023-04-06T09:52:46;16.30;51.40
53962;DHT22;39868;53.398;6.564;2023-04-06T09:55:35;16.30;51.80
53962;DHT22;39868;53.398;6.564;2023-04-06T09:58:09;16.30;50.80
53962;DHT22;39868;53.398;6.564;2023-04-06T10:00:50;16.20;50.60
53962;DHT22;39868;53.398;6.564;2023-04-06T10:05:55;16.10;51.00
53962;DHT22;39868;53.398;6.564;2023-04-06T10:08:28;16.10;50.50
53962;DHT22;39868;53.398;6.564;2023-04-06T10:10:59;16.10;50.30
53962;DHT22;39868;53.398;6.564;2023-04-06T10:13:27;16.00;50.30
53962;DHT22;39868;53.398;6.564;2023-04-06T10:15:55;16.00;50.70
53962;DHT22;39868;53.398;6.564;2023-04-06T10:18:23;16.00;50.50
53962;DHT22;39868;53.398;6.564;2023-04-06T10:21:19;16.00;50.40
53962;DHT22;39868;53.398;6.564;2023-04-06T10:23:51;16.00;51.40
53962;DHT22;39868;53.398;6.564;2023-04-06T10:26:22;16.00;50.30
53962;DHT22;39868;53.398;6.564;2023-04-06T10:28:50;16.00;50.70
53962;DHT22;39868;53.398;6.564;2023-04-06T10:31:25;16.00;50.30
53962;DHT22;39868;53.398;6.564;2023-04-06T10:34:01;16.10;50.50
53962;DHT22;39868;53.398;6.564;2023-04-06T10:36:32;16.10;50.30
53962;DHT22;39868;53.398;6.564;2023-04-06T10:39:04;16.20;50.00
53962;DHT22;39868;53.398;6.564;2023-04-06T10:41:52;16.20;49.70
53962;DHT22;39868;53.398;6.564;2023-04-06T10:44:24;16.30;50.00
53962;DHT22;39868;53.398;6.564;2023-04-06T10:46:58;16.30;49.10
53962;DHT22;39868;53.398;6.564;2023-04-06T10:49:28;16.40;49.10
53962;DHT22;39868;53.398;6.564;2023-04-06T10:51:56;16.40;48.90
53962;DHT22;39868;53.398;6.564;2023-04-06T10:54:25;16.40;48.90
53962;DHT22;39868;53.398;6.564;2023-04-06T10:56:53;16.50;48.90
53962;DHT22;39868;53.398;6.564;2023-04-06T10:59:21;16.50;48.80
53962;DHT22;39868;53.398;6.564;2023-04-06T11:01:49;16.60;48.70
53962;DHT22;39868;53.398;6.564;2023-04-06T11:04:19;16.60;48.80
53962;DHT22;39868;53.398;6.564;2023-04-06T11:06:48;16.70;48.40
53962;DHT22;39868;53.398;6.564;2023-04-06T11:09:25;16.80;48.30
53962;DHT22;39868;53.398;6.564;2023-04-06T11:11:53;17.00;48.20
53962;DHT22;39868;53.398;6.564;2023-04-06T11:14:21;17.10;47.90
53962;DHT22;39868;53.398;6.564;2023-04-06T11:16:49;17.10;47.50
53962;DHT22;39868;53.398;6.564;2023-04-06T11:19:17;17.20;47.30
53962;DHT22;39868;53.398;6.564;2023-04-06T11:21:46;17.30;47.30
53962;DHT22;39868;53.398;6.564;2023-04-06T11:24:22;17.40;46.80
53962;DHT22;39868;53.398;6.564;2023-04-06T11:26:51;17.40;47.50
53962;DHT22;39868;53.398;6.564;2023-04-06T11:29:20;17.40;46.70
53962;DHT22;39868;53.398;6.564;2023-04-06T11:31:53;17.50;47.10
53962;DHT22;39868;53.398;6.564;2023-04-06T11:34:22;17.50;46.30
53962;DHT22;39868;53.398;6.564;2023-04-06T11:36:55;17.60;46.40
53962;DHT22;39868;53.398;6.564;2023-04-06T11:39:25;17.60;46.40
53962;DHT22;39868;53.398;6.564;2023-04-06T11:41:58;17.60;46.50
53962;DHT22;39868;53.398;6.564;2023-04-06T11:44:43;17.60;46.30
53962;DHT22;39868;53.398;6.564;2023-04-06T11:47:13;17.60;46.20
53962;DHT22;39868;53.398;6.564;2023-04-06T11:49:43;17.60;46.50
53962;DHT22;39868;53.398;6.564;2023-04-06T11:52:17;17.60;46.20
53962;DHT22;39868;53.398;6.564;2023-04-06T11:54:46;17.60;46.10
53962;DHT22;39868;53.398;6.564;2023-04-06T11:57:14;17.60;45.90
53962;DHT22;39868;53.398;6.564;2023-04-06T11:59:41;17.60;46.10
53962;DHT22;39868;53.398;6.564;2023-04-06T12:02:09;17.60;46.50
53962;DHT22;39868;53.398;6.564;2023-04-06T12:04:38;17.70;46.10
53962;DHT22;39868;53.398;6.564;2023-04-06T12:07:05;17.70;46.10
53962;DHT22;39868;53.398;6.564;2023-04-06T12:09:33;17.80;45.90
53962;DHT22;39868;53.398;6.564;2023-04-06T12:12:01;17.80;46.00
53962;DHT22;39868;53.398;6.564;2023-04-06T12:14:29;17.80;45.60
53962;DHT22;39868;53.398;6.564;2023-04-06T12:16:58;17.90;45.80
53962;DHT22;39868;53.398;6.564;2023-04-06T12:19:25;17.90;45.70
53962;DHT22;39868;53.398;6.564;2023-04-06T12:21:53;18.00;45.10
53962;DHT22;39868;53.398;6.564;2023-04-06T12:24:24;18.00;44.20
53962;DHT22;39868;53.398;6.564;2023-04-06T12:26:53;18.10;44.60
53962;DHT22;39868;53.398;6.564;2023-04-06T12:29:35;18.10;44.70
53962;DHT22;39868;53.398;6.564;2023-04-06T12:32:02;18.20;44.60
53962;DHT22;39868;53.398;6.564;2023-04-06T12:34:30;18.20;44.70
53962;DHT22;39868;53.398;6.564;2023-04-06T12:36:57;18.30;44.60
53962;DHT22;39868;53.398;6.564;2023-04-06T12:39:25;18.40;44.00
53962;DHT22;39868;53.398;6.564;2023-04-06T12:41:52;18.40;44.00
53962;DHT22;39868;53.398;6.564;2023-04-06T12:44:20;18.50;43.70
53962;DHT22;39868;53.398;6.564;2023-04-06T12:46:50;18.50;43.80
53962;DHT22;39868;53.398;6.564;2023-04-06T12:49:18;18.50;43.70
53962;DHT22;39868;53.398;6.564;2023-04-06T12:51:46;18.50;42.80
53962;DHT22;39868;53.398;6.564;2023-04-06T12:54:13;18.50;42.00
53962;DHT22;39868;53.398;6.564;2023-04-06T12:56:40;18.50;43.00
53962;DHT22;39868;53.398;6.564;2023-04-06T12:59:08;18.50;42.70
53962;DHT22;39868;53.398;6.564;2023-04-06T13:01:35;18.50;41.80
53962;DHT22;39868;53.398;6.564;2023-04-06T13:04:03;18.60;42.80
53962;DHT22;39868;53.398;6.564;2023-04-06T13:06:30;18.50;43.30
53962;DHT22;39868;53.398;6.564;2023-04-06T13:08:57;18.50;42.90
53962;DHT22;39868;53.398;6.564;2023-04-06T13:11:26;18.50;42.60
53962;DHT22;39868;53.398;6.564;2023-04-06T13:13:54;18.50;42.30
53962;DHT22;39868;53.398;6.564;2023-04-06T13:16:22;18.50;40.30
53962;DHT22;39868;53.398;6.564;2023-04-06T13:18:49;18.40;41.90
53962;DHT22;39868;53.398;6.564;2023-04-06T13:21:17;18.40;41.60
53962;DHT22;39868;53.398;6.564;2023-04-06T13:23:44;18.30;41.70
53962;DHT22;39868;53.398;6.564;2023-04-06T13:26:12;18.20;41.70
53962;DHT22;39868;53.398;6.564;2023-04-06T13:28:40;18.20;41.10
53962;DHT22;39868;53.398;6.564;2023-04-06T13:31:08;18.10;41.20
53962;DHT22;39868;53.398;6.564;2023-04-06T13:33:37;18.10;40.60
53962;DHT22;39868;53.398;6.564;2023-04-06T13:36:06;18.00;41.30
53962;DHT22;39868;53.398;6.564;2023-04-06T13:38:34;17.90;41.20
53962;DHT22;39868;53.398;6.564;2023-04-06T13:41:01;17.90;41.20
53962;DHT22;39868;53.398;6.564;2023-04-06T13:43:29;17.90;40.90
53962;DHT22;39868;53.398;6.564;2023-04-06T13:45:57;17.80;40.10
53962;DHT22;39868;53.398;6.564;2023-04-06T13:48:27;17.80;40.80
53962;DHT22;39868;53.398;6.564;2023-04-06T13:50:54;17.70;41.40
53962;DHT22;39868;53.398;6.564;2023-04-06T13:53:22;17.70;40.00
53962;DHT22;39868;53.398;6.564;2023-04-06T13:55:53;17.60;41.40
53962;DHT22;39868;53.398;6.564;2023-04-06T13:58:24;17.60;42.00
53962;DHT22;39868;53.398;6.564;2023-04-06T14:00:51;17.50;40.60
53962;DHT22;39868;53.398;6.564;2023-04-06T14:03:20;17.50;40.90
53962;DHT22;39868;53.398;6.564;2023-04-06T14:05:48;17.50;41.20
53962;DHT22;39868;53.398;6.564;2023-04-06T14:08:16;17.40;41.20
53962;DHT22;39868;53.398;6.564;2023-04-06T14:10:43;17.40;41.70
53962;DHT22;39868;53.398;6.564;2023-04-06T14:13:11;17.40;42.00
53962;DHT22;39868;53.398;6.564;2023-04-06T14:15:39;17.40;42.40
53962;DHT22;39868;53.398;6.564;2023-04-06T14:18:07;17.40;42.20
53962;DHT22;39868;53.398;6.564;2023-04-06T14:20:35;17.30;40.40
53962;DHT22;39868;53.398;6.564;2023-04-06T14:23:03;17.30;40.60
53962;DHT22;39868;53.398;6.564;2023-04-06T14:25:31;17.30;40.80
53962;DHT22;39868;53.398;6.564;2023-04-06T14:27:59;17.20;40.80
53962;DHT22;39868;53.398;6.564;2023-04-06T14:30:30;17.20;40.40
53962;DHT22;39868;53.398;6.564;2023-04-06T14:32:58;17.20;41.10
53962;DHT22;39868;53.398;6.564;2023-04-06T14:35:26;17.20;41.90
53962;DHT22;39868;53.398;6.564;2023-04-06T14:37:56;17.10;41.50
53962;DHT22;39868;53.398;6.564;2023-04-06T14:40:28;17.10;41.10
53962;DHT22;39868;53.398;6.564;2023-04-06T14:42:57;17.10;41.40
53962;DHT22;39868;53.398;6.564;2023-04-06T14:45:24;17.10;41.80
53962;DHT22;39868;53.398;6.564;2023-04-06T14:47:52;17.10;41.70
53962;DHT22;39868;53.398;6.564;2023-04-06T14:50:19;17.00;42.00
53962;DHT22;39868;53.398;6.564;2023-04-06T14:52:47;16.90;41.30
53962;DHT22;39868;53.398;6.564;2023-04-06T14:55:14;16.90;41.70
53962;DHT22;39868;53.398;6.564;2023-04-06T14:57:42;16.80;42.30
53962;DHT22;39868;53.398;6.564;2023-04-06T15:00:10;16.70;42.20
53962;DHT22;39868;53.398;6.564;2023-04-06T15:02:39;16.70;42.50
53962;DHT22;39868;53.398;6.564;2023-04-06T15:05:07;16.60;42.70
53962;DHT22;39868;53.398;6.564;2023-04-06T15:07:35;16.50;42.90
53962;DHT22;39868;53.398;6.564;2023-04-06T15:10:03;16.50;43.20
53962;DHT22;39868;53.398;6.564;2023-04-06T15:12:31;16.40;43.50
53962;DHT22;39868;53.398;6.564;2023-04-06T15:14:59;16.30;43.70
53962;DHT22;39868;53.398;6.564;2023-04-06T15:17:28;16.30;43.80
53962;DHT22;39868;53.398;6.564;2023-04-06T15:19:55;16.20;44.10
53962;DHT22;39868;53.398;6.564;2023-04-06T15:22:24;16.10;44.90
53962;DHT22;39868;53.398;6.564;2023-04-06T15:24:51;16.00;44.40
53962;DHT22;39868;53.398;6.564;2023-04-06T15:27:19;16.00;44.80
53962;DHT22;39868;53.398;6.564;2023-04-06T15:29:46;15.90;45.10
53962;DHT22;39868;53.398;6.564;2023-04-06T15:32:14;15.90;45.90
53962;DHT22;39868;53.398;6.564;2023-04-06T15:34:41;15.70;45.30
53962;DHT22;39868;53.398;6.564;2023-04-06T15:37:09;15.70;45.20
53962;DHT22;39868;53.398;6.564;2023-04-06T15:39:36;15.60;45.50
53962;DHT22;39868;53.398;6.564;2023-04-06T15:42:04;15.50;46.00
53962;DHT22;39868;53.398;6.564;2023-04-06T15:44:31;15.50;46.10
53962;DHT22;39868;53.398;6.564;2023-04-06T15:46:58;15.40;46.30
53962;DHT22;39868;53.398;6.564;2023-04-06T15:49:26;15.40;46.50
53962;DHT22;39868;53.398;6.564;2023-04-06T15:51:53;15.30;46.70
53962;DHT22;39868;53.398;6.564;2023-04-06T15:54:20;15.20;46.50
53962;DHT22;39868;53.398;6.564;2023-04-06T15:56:48;15.10;46.60
53962;DHT22;39868;53.398;6.564;2023-04-06T15:59:16;15.00;46.70